Time;durP1;ratioP1;P1;durP2;ratioP2;P2;SDS_P1;SDS_P2;PMS_P1;PMS_P2;Temp;Humidity;BMP_temperature;BMP_pressure;BME280_temperature;BME280_humidity;BME280_pressure;Samples;Min_cycle;Max_cycle;Signal;HPM_P1;HPM_P2
2022/01/07 00:01:12;;;;;;;11.20;7.07;;;1.00;99.90;;;;;;5008235;28;20522;-57
2022/01/07 00:03:38;;;;;;;12.60;8.20;;;1.00;99.90;;;;;;5009402;28;20191;-56
2022/01/07 00:06:04;;;;;;;10.33;7.10;;;1.10;99.90;;;;;;5010619;28;20469;-56
2022/01/07 00:08:30;;;;;;;9.70;7.60;;;1.20;99.90;;;;;;5007271;28;20211;-57
2022/01/07 00:10:56;;;;;;;10.45;6.93;;;0.50;99.90;;;;;;5009961;28;20879;-56
2022/01/07 00:13:23;;;;;;;8.90;7.22;;;1.20;99.90;;;;;;5004338;28;20179;-56
2022/01/07 00:15:49;;;;;;;12.10;7.72;;;0.50;99.90;;;;;;5001403;28;20191;-57
2022/01/07 00:18:14;;;;;;;12.30;7.20;;;1.00;99.90;;;;;;5009279;28;20183;-56
2022/01/07 00:20:40;;;;;;;10.27;7.40;;;1.20;99.90;;;;;;5007022;28;20226;-56
2022/01/07 00:23:06;;;;;;;9.27;6.43;;;0.60;99.90;;;;;;4999989;28;20187;-57
2022/01/07 00:25:32;;;;;;;9.90;6.67;;;0.90;99.90;;;;;;5022894;28;20453;-56
2022/01/07 00:27:58;;;;;;;10.00;6.90;;;1.00;99.90;;;;;;5006978;28;20904;-57
2022/01/07 00:30:23;;;;;;;8.17;6.20;;;0.90;99.90;;;;;;5001659;28;20979;-56
2022/01/07 00:32:50;;;;;;;10.70;6.87;;;0.90;99.90;;;;;;5009618;28;20780;-56
2022/01/07 00:35:17;;;;;;;10.27;6.65;;;1.00;99.90;;;;;;5010788;28;20525;-57
2022/01/07 00:37:45;;;;;;;10.32;7.30;;;1.00;99.90;;;;;;5005135;28;20270;-57
2022/01/07 00:40:19;;;;;;;8.75;6.68;;;1.20;99.90;;;;;;5005134;28;20210;-57
2022/01/07 00:42:46;;;;;;;9.15;6.95;;;0.90;99.90;;;;;;5006828;28;20198;-57
2022/01/07 00:45:12;;;;;;;8.48;6.68;;;0.90;99.90;;;;;;5012702;28;20241;-56
2022/01/07 00:47:38;;;;;;;8.63;6.07;;;0.80;99.90;;;;;;5012180;28;20664;-57
2022/01/07 00:50:06;;;;;;;9.20;6.93;;;1.00;99.90;;;;;;5008871;28;20257;-56
2022/01/07 00:52:33;;;;;;;11.25;6.78;;;1.00;99.90;;;;;;5017300;28;20521;-57
2022/01/07 00:54:59;;;;;;;9.40;6.60;;;1.00;99.90;;;;;;5008772;28;20218;-56
2022/01/07 00:57:25;;;;;;;8.52;6.65;;;0.90;99.90;;;;;;5010809;28;20445;-59
2022/01/07 00:59:50;;;;;;;8.00;7.20;;;0.60;99.90;;;;;;5007527;28;20199;-57
2022/01/07 01:02:17;;;;;;;10.33;7.40;;;0.70;99.90;;;;;;5008208;28;20245;-56
2022/01/07 01:04:43;;;;;;;8.50;6.90;;;0.80;99.90;;;;;;5012828;28;20678;-57
2022/01/07 01:07:09;;;;;;;12.75;7.35;;;0.90;99.90;;;;;;5006783;28;20184;-56
2022/01/07 01:09:35;;;;;;;9.43;7.30;;;0.50;99.90;;;;;;5011728;28;20244;-57
2022/01/07 01:12:00;;;;;;;7.77;7.00;;;0.70;99.90;;;;;;5008016;28;20965;-57
2022/01/07 01:14:28;;;;;;;11.93;7.80;;;0.90;99.90;;;;;;5013042;28;20184;-57
2022/01/07 01:16:55;;;;;;;14.20;7.32;;;0.70;99.90;;;;;;5007966;28;20596;-55
2022/01/07 01:19:21;;;;;;;10.80;7.47;;;0.70;99.90;;;;;;5012755;28;20207;-55
2022/01/07 01:21:48;;;;;;;9.18;7.78;;;0.60;99.90;;;;;;5013693;28;20545;-55
2022/01/07 01:24:14;;;;;;;12.43;6.97;;;0.70;99.90;;;;;;5006904;28;20604;-56
2022/01/07 01:26:39;;;;;;;8.07;6.23;;;0.90;99.90;;;;;;5009707;28;20266;-56
2022/01/07 01:29:05;;;;;;;9.53;6.97;;;0.60;99.90;;;;;;5010414;28;20297;-55
2022/01/07 01:31:32;;;;;;;9.48;6.85;;;0.60;99.90;;;;;;5010636;28;20171;-56
2022/01/07 01:33:58;;;;;;;7.78;6.18;;;0.70;99.90;;;;;;5007225;28;20645;-56
2022/01/07 01:36:24;;;;;;;7.70;6.20;;;0.80;99.90;;;;;;5012592;28;20209;-56
2022/01/07 01:38:50;;;;;;;8.40;6.40;;;0.60;99.90;;;;;;5009073;28;20211;-56
2022/01/07 01:41:16;;;;;;;11.67;6.80;;;0.60;99.90;;;;;;5012264;28;20214;-56
2022/01/07 01:43:41;;;;;;;8.50;7.07;;;0.60;99.90;;;;;;5012641;28;20187;-56
2022/01/07 01:46:07;;;;;;;9.63;6.70;;;0.60;99.90;;;;;;5011305;28;20245;-56
2022/01/07 01:48:33;;;;;;;10.07;6.47;;;0.90;99.90;;;;;;5011513;28;20219;-55
2022/01/07 01:50:59;;;;;;;9.53;6.00;;;0.50;99.90;;;;;;5010020;28;20445;-55
2022/01/07 01:53:25;;;;;;;7.65;6.05;;;0.70;99.90;;;;;;5011084;28;20186;-55
2022/01/07 01:55:54;;;;;;;13.18;6.90;;;0.80;99.90;;;;;;5008354;28;20207;-55
2022/01/07 01:58:20;;;;;;;12.10;6.35;;;0.60;99.90;;;;;;5007315;28;20179;-56
2022/01/07 02:00:46;;;;;;;8.05;6.40;;;0.70;99.90;;;;;;5004638;28;20215;-56
2022/01/07 02:03:12;;;;;;;10.30;6.53;;;0.80;99.90;;;;;;5004415;28;20234;-55
2022/01/07 02:05:37;;;;;;;12.03;7.40;;;0.50;99.90;;;;;;5007652;28;20195;-55
2022/01/07 02:08:03;;;;;;;8.53;6.60;;;0.70;99.90;;;;;;5009149;28;20226;-56
2022/01/07 02:10:29;;;;;;;11.63;6.45;;;0.60;99.90;;;;;;5011449;28;20211;-55
2022/01/07 02:12:56;;;;;;;8.52;6.20;;;0.60;99.90;;;;;;5010919;28;21815;-56
2022/01/07 02:15:22;;;;;;;9.75;6.95;;;0.70;99.90;;;;;;5009270;28;20629;-55
2022/01/07 02:17:49;;;;;;;8.90;6.70;;;0.60;99.90;;;;;;5009447;28;20206;-56
2022/01/07 02:20:18;;;;;;;11.55;7.25;;;0.50;99.90;;;;;;5011169;28;20257;-56
2022/01/07 02:22:43;;;;;;;7.97;6.65;;;0.70;99.90;;;;;;5008098;28;20194;-57
2022/01/07 02:25:10;;;;;;;8.87;6.40;;;0.60;99.90;;;;;;5011422;28;20683;-56
2022/01/07 02:27:44;;;;;;;11.32;6.75;;;0.80;99.90;;;;;;5011014;28;20270;-56
2022/01/07 02:30:12;;;;;;;9.73;6.60;;;0.10;99.90;;;;;;5006138;28;20222;-56
2022/01/07 02:32:38;;;;;;;7.80;6.18;;;0.10;99.90;;;;;;5010918;28;20183;-56
2022/01/07 02:35:05;;;;;;;13.60;6.90;;;0.90;99.90;;;;;;5013751;28;20179;-56
2022/01/07 02:37:31;;;;;;;9.07;6.10;;;0.40;99.90;;;;;;5010684;28;20437;-56
2022/01/07 02:39:57;;;;;;;9.57;6.10;;;0.50;99.90;;;;;;5005027;28;20199;-56
2022/01/07 02:42:23;;;;;;;9.30;6.53;;;0.70;99.90;;;;;;5010955;28;20175;-56
2022/01/07 02:44:48;;;;;;;9.50;6.83;;;0.10;99.90;;;;;;5007107;28;20186;-55
2022/01/07 02:47:15;;;;;;;9.20;7.10;;;0.40;99.90;;;;;;5010520;28;20218;-56
2022/01/07 02:49:41;;;;;;;12.38;7.53;;;0.70;99.90;;;;;;5003943;28;20761;-55
2022/01/07 02:52:06;;;;;;;10.20;7.07;;;0.70;99.90;;;;;;5011750;28;20350;-56
2022/01/07 02:54:32;;;;;;;11.83;7.40;;;0.80;99.90;;;;;;5009125;28;20198;-56
2022/01/07 02:56:58;;;;;;;9.67;7.20;;;1.00;99.90;;;;;;5010441;28;20202;-56
2022/01/07 02:59:23;;;;;;;10.03;6.80;;;0.60;99.90;;;;;;5006445;28;20215;-56
2022/01/07 03:01:49;;;;;;;9.70;7.00;;;1.00;99.90;;;;;;5005583;28;20199;-56
2022/01/07 03:04:15;;;;;;;9.70;7.37;;;0.70;99.90;;;;;;5005444;28;20191;-56
2022/01/07 03:06:41;;;;;;;11.30;7.10;;;0.90;99.90;;;;;;5009936;28;20569;-56
2022/01/07 03:09:07;;;;;;;10.77;6.70;;;0.40;99.90;;;;;;5009068;28;20494;-57
2022/01/07 03:11:33;;;;;;;9.20;6.70;;;1.00;99.90;;;;;;5009686;28;20214;-56
2022/01/07 03:13:59;;;;;;;8.77;6.70;;;1.00;99.90;;;;;;5005987;28;20614;-56
2022/01/07 03:16:24;;;;;;;7.60;6.30;;;1.10;99.90;;;;;;4998993;28;20831;-56
2022/01/07 03:18:50;;;;;;;8.53;6.87;;;1.00;99.90;;;;;;5008966;28;20233;-56
2022/01/07 03:21:17;;;;;;;11.83;6.50;;;1.60;99.90;;;;;;5010198;28;20600;-55
2022/01/07 03:23:44;;;;;;;9.18;6.72;;;1.10;99.90;;;;;;5008628;28;20950;-56
2022/01/07 03:26:10;;;;;;;9.07;6.55;;;1.00;99.90;;;;;;5006418;28;20663;-56
2022/01/07 03:28:36;;;;;;;9.75;6.65;;;1.20;99.90;;;;;;5004997;28;20207;-55
2022/01/07 03:31:03;;;;;;;9.38;6.45;;;0.50;99.90;;;;;;5008041;28;20580;-56
2022/01/07 03:33:32;;;;;;;8.20;5.88;;;1.20;99.90;;;;;;5008048;28;20203;-56
2022/01/07 03:35:58;;;;;;;8.75;6.40;;;0.90;99.90;;;;;;5010467;28;20189;-55
2022/01/07 03:38:23;;;;;;;9.03;6.00;;;1.00;99.90;;;;;;5010181;28;20274;-55
2022/01/07 03:40:50;;;;;;;7.80;6.10;;;0.80;99.90;;;;;;5006498;28;20881;-56
2022/01/07 03:43:16;;;;;;;9.68;5.65;;;1.00;99.90;;;;;;5010247;28;20687;-55
2022/01/07 03:45:41;;;;;;;6.43;5.50;;;1.50;99.90;;;;;;5004256;28;20199;-55
2022/01/07 03:48:07;;;;;;;8.50;5.60;;;1.50;99.90;;;;;;5002489;28;20203;-56
2022/01/07 03:50:33;;;;;;;6.53;5.23;;;0.90;99.90;;;;;;5010090;28;20684;-55
2022/01/07 03:53:00;;;;;;;7.75;5.03;;;0.90;99.90;;;;;;5004743;28;20179;-55
2022/01/07 03:55:28;;;;;;;7.60;5.22;;;1.10;99.90;;;;;;5006934;28;20641;-55
2022/01/07 03:57:54;;;;;;;7.55;5.60;;;1.00;99.90;;;;;;5004069;28;20648;-55
2022/01/07 04:00:23;;;;;;;6.90;5.55;;;0.90;99.90;;;;;;5004688;28;20229;-55
2022/01/07 04:02:49;;;;;;;12.73;5.72;;;0.40;99.90;;;;;;5008810;28;20770;-55
2022/01/07 04:05:19;;;;;;;7.03;4.88;;;1.20;99.90;;;;;;5009104;28;20553;-55
2022/01/07 04:07:45;;;;;;;6.05;4.72;;;0.90;99.90;;;;;;5002464;28;20258;-56
2022/01/07 04:10:10;;;;;;;6.10;5.37;;;1.20;99.90;;;;;;5008284;28;20649;-56
2022/01/07 04:12:36;;;;;;;8.10;5.68;;;1.10;99.90;;;;;;5005463;28;20530;-56
2022/01/07 04:15:09;;;;;;;7.47;5.40;;;0.50;99.90;;;;;;5001844;28;20644;-56
2022/01/07 04:17:46;;;;;;;8.27;5.95;;;1.00;99.90;;;;;;5009157;28;20206;-56
2022/01/07 04:20:16;;;;;;;10.40;5.90;;;0.40;99.90;;;;;;5011149;28;20199;-56
2022/01/07 04:22:42;;;;;;;7.45;5.40;;;0.50;99.90;;;;;;5007616;28;20205;-54
2022/01/07 04:25:13;;;;;;;7.43;5.40;;;0.90;99.90;;;;;;5012146;28;20214;-55
2022/01/07 04:27:39;;;;;;;6.18;5.43;;;0.80;99.90;;;;;;5012997;28;20205;-55
2022/01/07 04:30:06;;;;;;;8.15;5.20;;;1.10;99.90;;;;;;5008385;28;20195;-55
2022/01/07 04:32:31;;;;;;;6.93;5.68;;;0.90;99.90;;;;;;5014318;28;20183;-56
2022/01/07 04:34:57;;;;;;;7.87;5.83;;;0.80;99.90;;;;;;5012604;28;20198;-55
2022/01/07 04:37:23;;;;;;;8.53;6.07;;;0.80;99.90;;;;;;5010333;28;20187;-55
2022/01/07 04:39:48;;;;;;;7.13;5.33;;;1.10;99.90;;;;;;5004921;28;20206;-55
2022/01/07 04:42:14;;;;;;;8.20;5.47;;;0.90;99.90;;;;;;5009539;28;20189;-55
2022/01/07 04:44:41;;;;;;;8.60;5.60;;;0.90;99.90;;;;;;5009970;28;20653;-55
2022/01/07 04:47:10;;;;;;;8.05;6.40;;;0.40;99.90;;;;;;5011692;28;20644;-55
2022/01/07 04:49:36;;;;;;;9.65;6.47;;;1.00;99.90;;;;;;5012484;28;20657;-54
2022/01/07 04:52:04;;;;;;;10.40;5.65;;;0.80;99.90;;;;;;5009159;28;20199;-55
2022/01/07 04:54:30;;;;;;;10.20;6.15;;;0.70;99.90;;;;;;5011268;28;20652;-55
2022/01/07 04:56:56;;;;;;;8.10;5.88;;;0.90;99.90;;;;;;5010604;28;20186;-55
2022/01/07 04:59:22;;;;;;;9.60;6.10;;;0.30;99.90;;;;;;5010634;28;20570;-55
2022/01/07 05:01:48;;;;;;;7.60;5.07;;;0.20;99.90;;;;;;5009021;28;20604;-56
2022/01/07 05:04:14;;;;;;;7.80;6.10;;;0.90;99.90;;;;;;5012908;28;20190;-56
2022/01/07 05:06:47;;;;;;;8.55;6.40;;;1.00;99.90;;;;;;5012218;28;20191;-56
2022/01/07 05:09:16;;;;;;;8.07;5.95;;;0.70;99.90;;;;;;5005631;28;20245;-55
2022/01/07 05:11:42;;;;;;;10.43;6.63;;;0.80;99.90;;;;;;5011120;28;20779;-56
2022/01/07 05:14:08;;;;;;;8.07;5.93;;;0.60;99.90;;;;;;5010972;28;20182;-56
2022/01/07 05:16:34;;;;;;;8.67;5.93;;;0.60;99.90;;;;;;5012300;28;20640;-55
2022/01/07 05:19:00;;;;;;;7.50;5.93;;;0.60;99.90;;;;;;5010230;28;20544;-57
2022/01/07 05:21:26;;;;;;;8.30;6.20;;;0.70;99.90;;;;;;5010146;28;20629;-56
2022/01/07 05:23:51;;;;;;;9.77;6.27;;;0.90;99.90;;;;;;5012562;28;20268;-56
2022/01/07 05:26:17;;;;;;;11.70;6.40;;;0.60;99.90;;;;;;5011735;28;20254;-55
2022/01/07 05:28:43;;;;;;;8.57;5.80;;;0.50;99.90;;;;;;5011324;28;20302;-56
2022/01/07 05:31:08;;;;;;;11.30;6.47;;;0.60;99.90;;;;;;5000744;28;20195;-56
2022/01/07 05:33:34;;;;;;;9.83;6.80;;;0.20;99.90;;;;;;5006071;28;20206;-57
2022/01/07 05:35:59;;;;;;;12.57;6.70;;;0.70;99.90;;;;;;5005300;28;20187;-56
2022/01/07 05:38:25;;;;;;;9.80;5.83;;;0.80;99.90;;;;;;5009187;28;20253;-56
2022/01/07 05:40:51;;;;;;;10.03;7.30;;;0.80;99.90;;;;;;5011630;28;20541;-56
2022/01/07 05:43:16;;;;;;;9.13;6.87;;;0.90;99.90;;;;;;5012379;28;20222;-55
2022/01/07 05:45:45;;;;;;;10.40;6.20;;;0.20;99.90;;;;;;5008811;28;20213;-56
2022/01/07 05:48:11;;;;;;;8.50;6.15;;;0.60;99.90;;;;;;5008771;28;20577;-56
2022/01/07 05:50:37;;;;;;;10.38;7.25;;;1.00;99.90;;;;;;5009779;28;20231;-56
2022/01/07 05:53:03;;;;;;;11.63;7.60;;;0.90;99.90;;;;;;5011223;28;20649;-56
2022/01/07 05:55:28;;;;;;;11.77;6.60;;;0.40;99.90;;;;;;5008547;28;20594;-56
2022/01/07 05:57:54;;;;;;;11.17;7.47;;;0.90;99.90;;;;;;5007166;28;20187;-56
2022/01/07 06:00:20;;;;;;;8.97;6.60;;;0.50;99.90;;;;;;5008051;28;20203;-56
2022/01/07 06:02:45;;;;;;;10.10;6.63;;;0.70;99.90;;;;;;5010975;28;20199;-57
2022/01/07 06:05:11;;;;;;;13.60;8.07;;;1.10;99.90;;;;;;5011201;28;20645;-56
2022/01/07 06:07:37;;;;;;;10.07;6.70;;;1.30;99.90;;;;;;5006524;28;20196;-55
2022/01/07 06:10:04;;;;;;;10.38;7.70;;;1.20;99.90;;;;;;5005785;28;20665;-56
2022/01/07 06:12:30;;;;;;;11.30;7.28;;;1.10;99.90;;;;;;5010905;28;20230;-56
2022/01/07 06:14:56;;;;;;;9.17;6.53;;;0.90;99.90;;;;;;5006749;28;20184;-56
2022/01/07 06:17:21;;;;;;;13.03;7.90;;;1.10;99.90;;;;;;5007912;28;20682;-56
2022/01/07 06:19:47;;;;;;;8.37;7.50;;;1.30;99.90;;;;;;5009303;28;20221;-56
2022/01/07 06:22:13;;;;;;;12.30;7.87;;;0.90;99.90;;;;;;5011068;28;20222;-56
2022/01/07 06:24:38;;;;;;;12.90;7.93;;;1.20;99.90;;;;;;5007721;28;20199;-56
2022/01/07 06:27:04;;;;;;;7.97;6.37;;;1.10;99.90;;;;;;5010482;28;20492;-56
2022/01/07 06:29:30;;;;;;;11.30;7.43;;;0.90;99.90;;;;;;5013406;28;20243;-56
2022/01/07 06:31:55;;;;;;;9.73;6.53;;;0.50;99.90;;;;;;5010535;28;20266;-56
2022/01/07 06:34:21;;;;;;;10.63;8.00;;;1.10;99.90;;;;;;5007949;28;20187;-56
2022/01/07 06:36:48;;;;;;;8.57;6.80;;;1.30;99.90;;;;;;5010297;28;20298;-57
2022/01/07 06:39:15;;;;;;;9.70;7.18;;;0.70;99.90;;;;;;5007379;28;20290;-56
2022/01/07 06:41:41;;;;;;;10.45;7.70;;;1.50;99.90;;;;;;5009071;28;20194;-56
2022/01/07 06:44:07;;;;;;;9.27;7.27;;;1.30;99.90;;;;;;5009586;28;20179;-56
2022/01/07 06:46:32;;;;;;;13.53;6.90;;;0.70;99.90;;;;;;5003339;28;20191;-56
2022/01/07 06:48:58;;;;;;;9.40;6.87;;;1.30;99.90;;;;;;5011477;28;20364;-56
2022/01/07 06:51:24;;;;;;;14.95;8.20;;;1.40;99.90;;;;;;5002070;28;20214;-57
2022/01/07 06:53:49;;;;;;;10.43;6.53;;;1.40;99.90;;;;;;5010291;28;20189;-56
2022/01/07 06:56:15;;;;;;;8.63;6.70;;;1.40;99.90;;;;;;5009407;28;20179;-56
2022/01/07 06:58:42;;;;;;;10.03;7.03;;;1.30;99.90;;;;;;5010683;28;20236;-56
2022/01/07 07:01:07;;;;;;;8.90;6.40;;;1.60;99.90;;;;;;5003883;28;20187;-56
2022/01/07 07:03:35;;;;;;;9.67;7.07;;;1.60;99.90;;;;;;5009380;28;20199;-57
2022/01/07 07:06:01;;;;;;;9.32;6.82;;;1.40;99.90;;;;;;5004065;28;20213;-56
2022/01/07 07:08:28;;;;;;;9.60;7.13;;;1.50;99.90;;;;;;5008361;28;20324;-57
2022/01/07 07:10:54;;;;;;;10.35;7.40;;;1.30;99.90;;;;;;5008182;28;20190;-57
2022/01/07 07:13:20;;;;;;;11.70;7.50;;;1.40;99.90;;;;;;5004187;28;20188;-56
2022/01/07 07:15:46;;;;;;;10.15;7.25;;;1.60;99.90;;;;;;4999177;28;20442;-56
2022/01/07 07:18:13;;;;;;;10.17;6.37;;;1.60;99.90;;;;;;5010672;28;20275;-56
2022/01/07 07:20:38;;;;;;;8.68;7.10;;;1.40;99.90;;;;;;5006955;28;20206;-56
2022/01/07 07:23:04;;;;;;;10.53;7.30;;;1.50;99.90;;;;;;4999175;28;20601;-55
2022/01/07 07:25:29;;;;;;;9.60;6.83;;;1.60;99.90;;;;;;5004385;28;20662;-56
2022/01/07 07:27:55;;;;;;;8.60;7.23;;;1.60;99.90;;;;;;5002200;28;20217;-56
2022/01/07 07:30:21;;;;;;;11.47;7.00;;;1.70;99.90;;;;;;4998748;28;20195;-56
2022/01/07 07:32:48;;;;;;;8.00;6.30;;;1.70;99.90;;;;;;5005377;28;20833;-56
2022/01/07 07:37:46;;;;;;;12.88;7.72;;;1.90;99.90;;;;;;4996668;28;20591;-56
2022/01/07 07:40:12;;;;;;;9.20;6.47;;;1.80;99.90;;;;;;5010048;28;20202;-55
2022/01/07 07:42:42;;;;;;;7.90;6.53;;;1.70;99.90;;;;;;5005065;28;20212;-57
2022/01/07 07:45:08;;;;;;;9.10;6.80;;;1.70;99.90;;;;;;5006635;28;20899;-57
2022/01/07 07:47:35;;;;;;;8.68;6.95;;;1.70;99.90;;;;;;4997140;28;20660;-57
2022/01/07 07:50:02;;;;;;;9.63;6.72;;;1.70;99.90;;;;;;5010239;28;20213;-56
2022/01/07 07:52:27;;;;;;;9.57;7.43;;;2.10;99.90;;;;;;5005693;28;20202;-56
2022/01/07 07:54:53;;;;;;;8.67;6.70;;;1.30;99.90;;;;;;5010713;28;20252;-56
2022/01/07 07:57:20;;;;;;;10.93;6.70;;;2.00;99.90;;;;;;5017756;28;20186;-56
2022/01/07 07:59:45;;;;;;;10.05;7.13;;;2.10;99.90;;;;;;5013611;28;20458;-56
2022/01/07 08:02:11;;;;;;;10.27;6.87;;;2.30;99.90;;;;;;5013225;28;20551;-57
2022/01/07 08:04:40;;;;;;;8.80;7.00;;;2.30;99.90;;;;;;5008592;28;20273;-56
2022/01/07 08:07:06;;;;;;;12.88;6.72;;;1.80;99.90;;;;;;5009413;28;20678;-56
2022/01/07 08:09:36;;;;;;;13.93;6.80;;;2.30;99.90;;;;;;5000457;28;20226;-57
2022/01/07 08:12:18;;;;;;;9.38;6.85;;;2.30;99.90;;;;;;5013645;28;20186;-55
2022/01/07 08:17:28;;;;;;;9.43;6.60;;;2.30;99.90;;;;;;5019166;28;20244;-57
2022/01/07 08:19:53;;;;;;;12.90;6.63;;;2.40;99.90;;;;;;5012698;28;20215;-57
2022/01/07 08:22:19;;;;;;;9.93;7.40;;;2.30;99.90;;;;;;5016123;28;20194;-56
2022/01/07 08:24:44;;;;;;;9.57;7.40;;;2.30;99.90;;;;;;5006695;28;20229;-56
2022/01/07 08:27:10;;;;;;;10.90;7.67;;;2.00;99.90;;;;;;5002096;28;20188;-56
2022/01/07 08:29:38;;;;;;;11.10;7.47;;;2.30;99.90;;;;;;5006583;28;20215;-56
2022/01/07 08:34:57;;;;;;;6.85;5.35;;;2.40;99.90;;;;;;5007802;28;20237;-56
2022/01/07 08:37:28;;;;;;;10.38;6.80;;;2.50;99.90;;;;;;5000765;28;20246;-56
2022/01/07 08:39:56;;;;;;;12.43;7.63;;;2.20;99.90;;;;;;5012205;28;20524;-56
2022/01/07 08:42:25;;;;;;;8.32;6.22;;;2.80;99.90;;;;;;5012283;28;20624;-56
2022/01/07 08:44:52;;;;;;;8.93;6.50;;;2.40;99.90;;;;;;5002459;28;20611;-56
2022/01/07 08:47:25;;;;;;;10.13;6.53;;;3.10;99.90;;;;;;5009417;28;20186;-56
2022/01/07 08:49:51;;;;;;;8.40;6.40;;;2.90;99.90;;;;;;5004112;28;20297;-56
2022/01/07 08:52:19;;;;;;;8.20;6.20;;;2.60;99.90;;;;;;5012056;28;20198;-56
2022/01/07 08:54:45;;;;;;;9.50;6.50;;;2.20;99.90;;;;;;5004510;28;20188;-56
2022/01/07 08:57:10;;;;;;;8.73;7.00;;;2.90;99.90;;;;;;5004184;28;20714;-56
2022/01/07 08:59:36;;;;;;;7.67;6.30;;;2.80;99.90;;;;;;5009362;28;20231;-57
2022/01/07 09:02:02;;;;;;;7.47;6.20;;;2.80;99.90;;;;;;5010914;28;20204;-56
2022/01/07 09:04:27;;;;;;;9.13;6.40;;;3.00;99.90;;;;;;5012316;28;20179;-56
2022/01/07 09:06:53;;;;;;;7.53;6.50;;;2.80;99.90;;;;;;5007327;28;20572;-55
2022/01/07 09:09:19;;;;;;;7.53;6.73;;;2.50;99.90;;;;;;5000156;28;20219;-56
2022/01/07 09:11:44;;;;;;;7.40;5.20;;;3.10;99.90;;;;;;5006122;28;20189;-56
2022/01/07 09:14:10;;;;;;;7.80;5.80;;;3.00;99.90;;;;;;5007740;28;20194;-56
2022/01/07 09:16:35;;;;;;;6.67;5.93;;;3.20;99.90;;;;;;5009652;28;20193;-56
2022/01/07 09:19:03;;;;;;;9.50;6.30;;;2.70;99.90;;;;;;5009321;28;20229;-55
2022/01/07 09:21:28;;;;;;;8.38;6.30;;;3.00;99.90;;;;;;5012179;28;20194;-57
2022/01/07 09:23:54;;;;;;;7.70;5.60;;;3.00;99.90;;;;;;4995569;28;20202;-56
2022/01/07 09:26:20;;;;;;;10.13;7.03;;;3.60;99.90;;;;;;5006744;28;20274;-57
2022/01/07 09:28:46;;;;;;;8.85;6.90;;;3.60;99.90;;;;;;5005001;28;20843;-56
2022/01/07 09:31:13;;;;;;;13.70;9.87;;;3.70;99.90;;;;;;5004325;28;20186;-57
2022/01/07 09:33:39;;;;;;;8.50;6.55;;;3.60;99.90;;;;;;5006823;28;20213;-57
2022/01/07 09:36:04;;;;;;;10.63;6.20;;;3.60;99.90;;;;;;5009033;28;20180;-58
2022/01/07 09:38:30;;;;;;;6.03;5.30;;;3.70;99.90;;;;;;5012591;28;20194;-56
2022/01/07 09:40:56;;;;;;;5.60;4.57;;;3.70;99.90;;;;;;5004682;28;20450;-56
2022/01/07 09:43:22;;;;;;;6.30;4.80;;;3.70;99.90;;;;;;5010498;28;20184;-56
2022/01/07 09:45:48;;;;;;;7.45;5.90;;;3.60;99.90;;;;;;4999659;28;20264;-57
2022/01/07 09:48:14;;;;;;;8.45;5.78;;;3.20;99.90;;;;;;5012354;28;20215;-56
2022/01/07 09:50:40;;;;;;;9.87;6.23;;;3.40;99.90;;;;;;5014357;28;20293;-57
2022/01/07 09:53:13;;;;;;;6.63;5.77;;;3.60;99.90;;;;;;5003812;28;20530;-56
2022/01/07 09:55:40;;;;;;;6.30;5.55;;;3.70;99.90;;;;;;5008424;28;20186;-57
2022/01/07 09:58:07;;;;;;;7.95;5.35;;;3.60;99.90;;;;;;5010408;28;20180;-56
2022/01/07 10:00:44;;;;;;;8.45;5.57;;;3.40;99.90;;;;;;5004610;28;20216;-57
2022/01/07 10:03:11;;;;;;;5.88;5.25;;;3.50;99.90;;;;;;5009981;28;20253;-56
2022/01/07 10:05:55;;;;;;;6.63;5.13;;;3.70;99.90;;;;;;5008442;28;20202;-56
2022/01/07 10:08:28;;;;;;;8.68;5.25;;;3.20;99.90;;;;;;5000715;28;20214;-56
2022/01/07 10:11:18;;;;;;;7.63;6.03;;;3.80;99.90;;;;;;5003029;28;20191;-56
2022/01/07 10:13:49;;;;;;;18.52;12.95;;;3.70;99.90;;;;;;5009037;28;20583;-56
2022/01/07 10:16:16;;;;;;;7.38;5.68;;;3.60;99.90;;;;;;4996864;28;20191;-56
2022/01/07 10:18:43;;;;;;;8.40;5.38;;;3.80;99.90;;;;;;5015877;28;20538;-56
2022/01/07 10:21:10;;;;;;;9.40;5.88;;;3.80;99.90;;;;;;5000644;28;20179;-57
2022/01/07 10:23:36;;;;;;;7.43;5.10;;;3.50;99.90;;;;;;5010927;28;20653;-56
2022/01/07 10:26:02;;;;;;;9.70;6.82;;;3.70;99.90;;;;;;5004390;28;20186;-57
2022/01/07 10:28:33;;;;;;;7.77;5.40;;;3.50;99.90;;;;;;5010151;28;20658;-57
2022/01/07 10:31:02;;;;;;;6.10;5.00;;;3.40;99.90;;;;;;4999424;28;20658;-56
2022/01/07 10:33:37;;;;;;;7.03;5.43;;;3.60;99.90;;;;;;5004176;28;20237;-56
2022/01/07 10:36:06;;;;;;;5.43;4.93;;;3.40;99.90;;;;;;5010215;28;20194;-56
2022/01/07 10:38:35;;;;;;;6.95;5.60;;;3.60;99.90;;;;;;4995250;28;20195;-57
2022/01/07 10:41:01;;;;;;;9.27;5.70;;;3.40;99.90;;;;;;5006849;28;20187;-56
2022/01/07 10:43:32;;;;;;;7.72;5.50;;;3.50;99.90;;;;;;5005738;28;20188;-56
2022/01/07 10:45:59;;;;;;;7.85;6.00;;;3.10;99.90;;;;;;5000781;28;20229;-56
2022/01/07 10:48:38;;;;;;;7.25;5.38;;;3.40;99.90;;;;;;5003085;28;20613;-56
2022/01/07 10:51:09;;;;;;;8.18;6.45;;;3.50;99.90;;;;;;5008686;28;20186;-56
2022/01/07 10:53:35;;;;;;;9.82;6.50;;;3.00;99.90;;;;;;5011066;28;20187;-57
2022/01/07 10:56:14;;;;;;;7.55;6.13;;;3.60;99.90;;;;;;5002063;28;20210;-56
2022/01/07 10:58:42;;;;;;;7.85;5.53;;;3.60;99.90;;;;;;5005832;28;20289;-57
2022/01/07 11:01:28;;;;;;;10.55;5.95;;;3.30;99.90;;;;;;5004170;28;20664;-56
2022/01/07 11:03:57;;;;;;;9.20;6.13;;;3.40;99.90;;;;;;5008952;28;20588;-57
2022/01/07 11:06:25;;;;;;;7.10;6.00;;;3.10;99.90;;;;;;5008026;28;20199;-55
2022/01/07 11:08:52;;;;;;;9.63;6.00;;;3.30;99.90;;;;;;4999908;28;20215;-57
2022/01/07 11:11:20;;;;;;;8.48;6.43;;;3.00;99.90;;;;;;5006681;28;20184;-57
2022/01/07 11:13:46;;;;;;;9.95;6.40;;;3.10;99.90;;;;;;5008670;28;20346;-56
2022/01/07 11:16:12;;;;;;;9.90;6.40;;;3.20;99.90;;;;;;5000295;28;20309;-56
2022/01/07 11:18:39;;;;;;;8.40;7.10;;;3.10;99.90;;;;;;4997373;28;20303;-57
2022/01/07 11:21:06;;;;;;;10.73;7.10;;;3.10;99.90;;;;;;5011092;28;20526;-56
2022/01/07 11:23:37;;;;;;;10.48;7.70;;;3.00;99.90;;;;;;4998953;28;20190;-57
2022/01/07 11:26:04;;;;;;;11.05;7.05;;;3.30;99.90;;;;;;5003958;28;20196;-56
2022/01/07 11:28:30;;;;;;;17.10;10.88;;;3.40;99.90;;;;;;5009623;28;20214;-57
2022/01/07 11:31:11;;;;;;;9.25;7.32;;;3.30;99.90;;;;;;4994519;28;20710;-56
2022/01/07 11:33:37;;;;;;;8.85;7.28;;;3.00;99.90;;;;;;5000056;28;20194;-56
2022/01/07 11:36:03;;;;;;;10.48;6.93;;;3.50;99.90;;;;;;5006711;28;20649;-57
2022/01/07 11:38:39;;;;;;;12.48;7.55;;;3.30;99.90;;;;;;5010407;28;20187;-56
2022/01/07 11:41:09;;;;;;;11.65;7.72;;;3.40;99.90;;;;;;4994190;28;20623;-57
2022/01/07 11:43:39;;;;;;;8.18;7.18;;;3.50;99.90;;;;;;5002328;28;20201;-57
2022/01/07 11:46:24;;;;;;;12.80;7.72;;;3.30;99.90;;;;;;4995720;28;20188;-57
2022/01/07 11:48:51;;;;;;;14.02;9.73;;;3.60;99.90;;;;;;5004946;28;20518;-57
2022/01/07 11:51:17;;;;;;;13.15;8.30;;;3.70;99.90;;;;;;4998488;28;20302;-57
2022/01/07 11:53:48;;;;;;;8.23;6.63;;;3.90;99.90;;;;;;4996850;28;20218;-57
2022/01/07 11:56:19;;;;;;;9.25;6.95;;;3.80;99.90;;;;;;5003668;28;20255;-56
2022/01/07 11:58:47;;;;;;;11.50;7.43;;;4.10;99.90;;;;;;5005563;28;20210;-56
2022/01/07 12:01:27;;;;;;;8.18;6.40;;;3.70;99.90;;;;;;5002366;28;20196;-56
2022/01/07 12:03:56;;;;;;;11.48;8.02;;;4.00;99.90;;;;;;5004052;28;20214;-56
2022/01/07 12:06:31;;;;;;;10.85;8.70;;;4.30;99.90;;;;;;5006753;28;20202;-56
2022/01/07 12:09:01;;;;;;;9.75;7.22;;;4.30;99.90;;;;;;5004232;28;20587;-57
2022/01/07 12:11:31;;;;;;;8.25;5.82;;;4.50;99.90;;;;;;5019830;28;20198;-56
2022/01/07 12:13:58;;;;;;;7.00;6.13;;;4.70;99.90;;;;;;5003810;28;20260;-56
2022/01/07 12:16:26;;;;;;;5.85;5.00;;;4.60;99.90;;;;;;5004079;28;20183;-57
2022/01/07 12:18:53;;;;;;;9.15;6.30;;;4.70;99.90;;;;;;5005084;28;20237;-56
2022/01/07 12:21:19;;;;;;;6.03;5.30;;;4.60;99.90;;;;;;5010133;28;20250;-56
2022/01/07 12:23:45;;;;;;;6.80;5.40;;;4.70;99.90;;;;;;5005925;28;20657;-62
2022/01/07 12:26:11;;;;;;;8.47;5.30;;;4.00;99.90;;;;;;5008413;28;20280;-56
2022/01/07 12:28:39;;;;;;;5.67;4.83;;;4.60;99.90;;;;;;5007563;28;20213;-57
2022/01/07 12:31:10;;;;;;;6.80;5.40;;;4.80;99.90;;;;;;4996511;28;20190;-56
2022/01/07 12:33:48;;;;;;;9.00;5.72;;;4.70;99.90;;;;;;5006594;28;20195;-57
2022/01/07 12:36:27;;;;;;;7.07;5.55;;;5.00;99.90;;;;;;5006072;28;20188;-57
2022/01/07 12:39:04;;;;;;;9.38;5.47;;;5.10;99.90;;;;;;5004658;28;20649;-57
2022/01/07 12:41:30;;;;;;;7.70;6.18;;;4.80;99.90;;;;;;5011279;28;20658;-56
2022/01/07 12:44:12;;;;;;;7.00;5.45;;;4.80;99.90;;;;;;5012761;28;20636;-56
2022/01/07 12:46:39;;;;;;;5.57;5.03;;;4.90;99.90;;;;;;5013195;28;20192;-56
2022/01/07 12:49:07;;;;;;;4.75;4.25;;;4.70;99.90;;;;;;5012768;28;20224;-56
2022/01/07 12:51:35;;;;;;;7.45;5.25;;;4.90;99.90;;;;;;5010443;28;20615;-56
2022/01/07 12:54:05;;;;;;;6.40;4.50;;;5.50;99.90;;;;;;4999931;28;20217;-56
2022/01/07 12:56:36;;;;;;;6.97;5.10;;;5.00;99.90;;;;;;5000714;28;20288;-56
2022/01/07 12:59:19;;;;;;;5.60;4.57;;;5.10;99.90;;;;;;5015422;28;20219;-57
2022/01/07 13:01:47;;;;;;;7.53;4.78;;;5.20;99.90;;;;;;5007104;28;20268;-57